sensor_id;sensor_type;location;lat;lon;timestamp;temperature;humidity
8643;DHT22;4359;49.358;11.256;2022-11-23T00:01:32;4.00;99.90
8643;DHT22;4359;49.358;11.256;2022-11-23T00:04:03;4.00;99.90
8643;DHT22;4359;49.358;11.256;2022-11-23T00:06:29;4.00;99.90
8643;DHT22;4359;49.358;11.256;2022-11-23T00:08:54;3.90;99.90
8643;DHT22;4359;49.358;11.256;2022-11-23T00:11:21;3.90;99.90
8643;DHT22;4359;49.358;11.256;2022-11-23T00:13:47;3.90;99.90
8643;DHT22;4359;49.358;11.256;2022-11-23T00:16:16;3.90;99.90
8643;DHT22;4359;49.358;11.256;2022-11-23T00:18:42;3.90;99.90
8643;DHT22;4359;49.358;11.256;2022-11-23T00:21:08;3.90;99.90
8643;DHT22;4359;49.358;11.256;2022-11-23T00:23:35;3.90;99.90
8643;DHT22;4359;49.358;11.256;2022-11-23T00:26:00;3.90;99.90
8643;DHT22;4359;49.358;11.256;2022-11-23T00:28:26;3.80;99.90
8643;DHT22;4359;49.358;11.256;2022-11-23T00:30:51;3.90;99.90
8643;DHT22;4359;49.358;11.256;2022-11-23T00:33:17;3.80;99.90
8643;DHT22;4359;49.358;11.256;2022-11-23T00:35:42;3.80;99.90
8643;DHT22;4359;49.358;11.256;2022-11-23T00:38:08;3.80;99.90
8643;DHT22;4359;49.358;11.256;2022-11-23T00:40:33;3.80;99.90
8643;DHT22;4359;49.358;11.256;2022-11-23T00:42:59;3.70;99.90
8643;DHT22;4359;49.358;11.256;2022-11-23T00:45:25;3.70;99.90
8643;DHT22;4359;49.358;11.256;2022-11-23T00:47:50;3.60;99.90
8643;DHT22;4359;49.358;11.256;2022-11-23T00:50:16;3.50;99.90
8643;DHT22;4359;49.358;11.256;2022-11-23T00:52:41;3.50;99.90
8643;DHT22;4359;49.358;11.256;2022-11-23T00:55:07;3.40;99.90
8643;DHT22;4359;49.358;11.256;2022-11-23T00:57:32;3.30;99.90
8643;DHT22;4359;49.358;11.256;2022-11-23T00:59:59;3.20;99.90
8643;DHT22;4359;49.358;11.256;2022-11-23T01:02:24;3.10;99.90
8643;DHT22;4359;49.358;11.256;2022-11-23T01:04:50;3.00;99.90
8643;DHT22;4359;49.358;11.256;2022-11-23T01:07:15;2.90;99.90
8643;DHT22;4359;49.358;11.256;2022-11-23T01:09:41;2.90;99.90
8643;DHT22;4359;49.358;11.256;2022-11-23T01:12:06;2.90;99.90
8643;DHT22;4359;49.358;11.256;2022-11-23T01:14:32;2.90;99.90
8643;DHT22;4359;49.358;11.256;2022-11-23T01:16:57;2.70;99.90
8643;DHT22;4359;49.358;11.256;2022-11-23T01:19:23;2.70;99.90
8643;DHT22;4359;49.358;11.256;2022-11-23T01:21:49;2.70;99.90
8643;DHT22;4359;49.358;11.256;2022-11-23T01:24:16;2.70;99.90
8643;DHT22;4359;49.358;11.256;2022-11-23T01:26:42;2.70;99.90
8643;DHT22;4359;49.358;11.256;2022-11-23T01:29:08;2.80;99.90
8643;DHT22;4359;49.358;11.256;2022-11-23T01:31:34;2.80;99.90
8643;DHT22;4359;49.358;11.256;2022-11-23T01:34:00;2.90;99.90
8643;DHT22;4359;49.358;11.256;2022-11-23T01:36:27;2.80;99.90
8643;DHT22;4359;49.358;11.256;2022-11-23T01:38:53;2.80;99.90
8643;DHT22;4359;49.358;11.256;2022-11-23T01:41:19;2.70;99.90
8643;DHT22;4359;49.358;11.256;2022-11-23T01:43:45;2.70;99.90
8643;DHT22;4359;49.358;11.256;2022-11-23T01:46:11;2.60;99.90
8643;DHT22;4359;49.358;11.256;2022-11-23T01:51:07;2.40;99.90
8643;DHT22;4359;49.358;11.256;2022-11-23T01:53:35;2.30;99.90
8643;DHT22;4359;49.358;11.256;2022-11-23T01:56:01;2.20;99.90
8643;DHT22;4359;49.358;11.256;2022-11-23T01:58:30;2.10;99.90
8643;DHT22;4359;49.358;11.256;2022-11-23T02:00:56;1.90;99.90
8643;DHT22;4359;49.358;11.256;2022-11-23T02:03:22;1.80;99.90
8643;DHT22;4359;49.358;11.256;2022-11-23T02:05:48;1.70;99.90
8643;DHT22;4359;49.358;11.256;2022-11-23T02:08:15;1.60;99.90
8643;DHT22;4359;49.358;11.256;2022-11-23T02:10:41;1.50;99.90
8643;DHT22;4359;49.358;11.256;2022-11-23T02:13:09;1.40;99.90
8643;DHT22;4359;49.358;11.256;2022-11-23T02:15:35;1.50;99.90
8643;DHT22;4359;49.358;11.256;2022-11-23T02:18:01;1.60;99.90
8643;DHT22;4359;49.358;11.256;2022-11-23T02:20:27;1.70;99.90
8643;DHT22;4359;49.358;11.256;2022-11-23T02:25:21;1.50;99.90
8643;DHT22;4359;49.358;11.256;2022-11-23T02:27:49;1.50;99.90
8643;DHT22;4359;49.358;11.256;2022-11-23T02:30:15;1.40;99.90
8643;DHT22;4359;49.358;11.256;2022-11-23T02:32:40;1.30;99.90
8643;DHT22;4359;49.358;11.256;2022-11-23T02:35:08;1.30;99.90
8643;DHT22;4359;49.358;11.256;2022-11-23T02:37:34;1.20;99.90
8643;DHT22;4359;49.358;11.256;2022-11-23T02:39:59;1.20;99.90
8643;DHT22;4359;49.358;11.256;2022-11-23T02:42:28;1.20;99.90
8643;DHT22;4359;49.358;11.256;2022-11-23T02:45:30;1.20;99.90
8643;DHT22;4359;49.358;11.256;2022-11-23T02:47:46;1.20;99.90
8643;DHT22;4359;49.358;11.256;2022-11-23T02:50:13;1.20;99.90
8643;DHT22;4359;49.358;11.256;2022-11-23T02:52:39;1.20;99.90
8643;DHT22;4359;49.358;11.256;2022-11-23T02:55:05;1.20;99.90
8643;DHT22;4359;49.358;11.256;2022-11-23T02:57:30;1.20;99.90
8643;DHT22;4359;49.358;11.256;2022-11-23T02:59:56;1.30;99.90
8643;DHT22;4359;49.358;11.256;2022-11-23T03:02:21;1.40;99.90
8643;DHT22;4359;49.358;11.256;2022-11-23T03:04:47;1.50;99.90
8643;DHT22;4359;49.358;11.256;2022-11-23T03:07:12;1.50;99.90
8643;DHT22;4359;49.358;11.256;2022-11-23T03:09:38;1.60;99.90
8643;DHT22;4359;49.358;11.256;2022-11-23T03:12:03;1.50;99.90
8643;DHT22;4359;49.358;11.256;2022-11-23T03:14:29;1.60;99.90
8643;DHT22;4359;49.358;11.256;2022-11-23T03:16:54;1.60;99.90
8643;DHT22;4359;49.358;11.256;2022-11-23T03:19:20;1.70;99.90
8643;DHT22;4359;49.358;11.256;2022-11-23T03:21:45;1.80;99.90
8643;DHT22;4359;49.358;11.256;2022-11-23T03:24:11;1.80;99.90
8643;DHT22;4359;49.358;11.256;2022-11-23T03:26:36;1.80;99.90
8643;DHT22;4359;49.358;11.256;2022-11-23T03:29:02;1.80;99.90
8643;DHT22;4359;49.358;11.256;2022-11-23T03:31:27;1.80;99.90
8643;DHT22;4359;49.358;11.256;2022-11-23T03:33:53;1.80;99.90
8643;DHT22;4359;49.358;11.256;2022-11-23T03:36:18;1.80;99.90
8643;DHT22;4359;49.358;11.256;2022-11-23T03:38:44;1.90;99.90
8643;DHT22;4359;49.358;11.256;2022-11-23T03:41:10;1.90;99.90
8643;DHT22;4359;49.358;11.256;2022-11-23T03:43:35;1.90;99.90
8643;DHT22;4359;49.358;11.256;2022-11-23T03:46:01;1.90;99.90
8643;DHT22;4359;49.358;11.256;2022-11-23T03:48:26;2.00;99.90
8643;DHT22;4359;49.358;11.256;2022-11-23T03:50:52;2.00;99.90
8643;DHT22;4359;49.358;11.256;2022-11-23T03:53:17;2.00;99.90
8643;DHT22;4359;49.358;11.256;2022-11-23T03:55:44;2.00;99.90
8643;DHT22;4359;49.358;11.256;2022-11-23T03:58:10;2.00;99.90
8643;DHT22;4359;49.358;11.256;2022-11-23T04:00:35;2.00;99.90
8643;DHT22;4359;49.358;11.256;2022-11-23T04:03:01;2.00;99.90
8643;DHT22;4359;49.358;11.256;2022-11-23T04:05:26;2.00;99.90
8643;DHT22;4359;49.358;11.256;2022-11-23T04:07:52;2.00;99.90
8643;DHT22;4359;49.358;11.256;2022-11-23T04:10:18;1.90;99.90
8643;DHT22;4359;49.358;11.256;2022-11-23T04:12:44;2.00;99.90
8643;DHT22;4359;49.358;11.256;2022-11-23T04:15:10;2.00;99.90
8643;DHT22;4359;49.358;11.256;2022-11-23T04:17:35;2.00;99.90
8643;DHT22;4359;49.358;11.256;2022-11-23T04:20:01;2.00;99.90
8643;DHT22;4359;49.358;11.256;2022-11-23T04:22:27;1.90;99.90
8643;DHT22;4359;49.358;11.256;2022-11-23T04:24:52;1.90;99.90
8643;DHT22;4359;49.358;11.256;2022-11-23T04:27:17;1.80;99.90
8643;DHT22;4359;49.358;11.256;2022-11-23T04:29:43;1.70;99.90
8643;DHT22;4359;49.358;11.256;2022-11-23T04:32:09;1.60;99.90
8643;DHT22;4359;49.358;11.256;2022-11-23T04:34:34;1.50;99.90
8643;DHT22;4359;49.358;11.256;2022-11-23T04:37:00;1.40;99.90
8643;DHT22;4359;49.358;11.256;2022-11-23T04:39:25;1.40;99.90
8643;DHT22;4359;49.358;11.256;2022-11-23T04:41:51;1.30;99.90
8643;DHT22;4359;49.358;11.256;2022-11-23T04:44:16;1.20;99.90
8643;DHT22;4359;49.358;11.256;2022-11-23T04:46:42;1.20;99.90
8643;DHT22;4359;49.358;11.256;2022-11-23T04:49:08;1.20;99.90
8643;DHT22;4359;49.358;11.256;2022-11-23T04:51:33;1.10;99.90
8643;DHT22;4359;49.358;11.256;2022-11-23T04:53:59;1.00;99.90
8643;DHT22;4359;49.358;11.256;2022-11-23T04:56:24;1.00;99.90
8643;DHT22;4359;49.358;11.256;2022-11-23T04:58:50;1.00;99.90
8643;DHT22;4359;49.358;11.256;2022-11-23T05:01:16;1.00;99.90
8643;DHT22;4359;49.358;11.256;2022-11-23T05:03:42;1.00;99.90
8643;DHT22;4359;49.358;11.256;2022-11-23T05:06:08;1.10;99.90
8643;DHT22;4359;49.358;11.256;2022-11-23T05:08:33;1.20;99.90
8643;DHT22;4359;49.358;11.256;2022-11-23T05:10:59;1.30;99.90
8643;DHT22;4359;49.358;11.256;2022-11-23T05:13:24;1.30;99.90
8643;DHT22;4359;49.358;11.256;2022-11-23T05:15:50;1.30;99.90
8643;DHT22;4359;49.358;11.256;2022-11-23T05:18:15;1.40;99.90
8643;DHT22;4359;49.358;11.256;2022-11-23T05:20:41;1.40;99.90
8643;DHT22;4359;49.358;11.256;2022-11-23T05:23:07;1.50;99.90
8643;DHT22;4359;49.358;11.256;2022-11-23T05:25:32;1.60;99.90
8643;DHT22;4359;49.358;11.256;2022-11-23T05:27:58;1.70;99.90
8643;DHT22;4359;49.358;11.256;2022-11-23T05:30:23;1.80;99.90
8643;DHT22;4359;49.358;11.256;2022-11-23T05:32:49;1.80;99.90
8643;DHT22;4359;49.358;11.256;2022-11-23T05:35:15;1.80;99.90
8643;DHT22;4359;49.358;11.256;2022-11-23T05:37:41;1.80;99.90
8643;DHT22;4359;49.358;11.256;2022-11-23T05:40:06;1.90;99.90
8643;DHT22;4359;49.358;11.256;2022-11-23T05:42:32;1.90;99.90
8643;DHT22;4359;49.358;11.256;2022-11-23T05:44:58;1.90;99.90
8643;DHT22;4359;49.358;11.256;2022-11-23T05:47:23;2.10;99.90
8643;DHT22;4359;49.358;11.256;2022-11-23T05:49:49;1.90;99.90
8643;DHT22;4359;49.358;11.256;2022-11-23T05:52:16;1.70;99.90
8643;DHT22;4359;49.358;11.256;2022-11-23T05:54:41;1.70;99.90
8643;DHT22;4359;49.358;11.256;2022-11-23T05:57:07;1.70;99.90
8643;DHT22;4359;49.358;11.256;2022-11-23T05:59:32;1.70;99.90
8643;DHT22;4359;49.358;11.256;2022-11-23T06:01:58;1.70;99.90
8643;DHT22;4359;49.358;11.256;2022-11-23T06:04:23;1.80;99.90
8643;DHT22;4359;49.358;11.256;2022-11-23T06:06:49;2.00;99.90
8643;DHT22;4359;49.358;11.256;2022-11-23T06:09:14;2.00;99.90
8643;DHT22;4359;49.358;11.256;2022-11-23T06:11:40;2.00;99.90
8643;DHT22;4359;49.358;11.256;2022-11-23T06:14:06;2.00;99.90
8643;DHT22;4359;49.358;11.256;2022-11-23T06:16:31;2.00;99.90
8643;DHT22;4359;49.358;11.256;2022-11-23T06:18:57;2.00;99.90
8643;DHT22;4359;49.358;11.256;2022-11-23T06:21:22;2.00;99.90
8643;DHT22;4359;49.358;11.256;2022-11-23T06:23:48;2.00;99.90
8643;DHT22;4359;49.358;11.256;2022-11-23T06:26:13;2.00;99.90
8643;DHT22;4359;49.358;11.256;2022-11-23T06:28:39;2.10;99.90
8643;DHT22;4359;49.358;11.256;2022-11-23T06:31:05;2.00;99.90
8643;DHT22;4359;49.358;11.256;2022-11-23T06:33:31;2.00;99.90
8643;DHT22;4359;49.358;11.256;2022-11-23T06:35:58;2.00;99.90
8643;DHT22;4359;49.358;11.256;2022-11-23T06:38:24;2.00;99.90
8643;DHT22;4359;49.358;11.256;2022-11-23T06:40:49;2.00;99.90
8643;DHT22;4359;49.358;11.256;2022-11-23T06:43:15;2.10;99.90
8643;DHT22;4359;49.358;11.256;2022-11-23T06:45:40;2.10;99.90
8643;DHT22;4359;49.358;11.256;2022-11-23T06:48:06;2.10;99.90
8643;DHT22;4359;49.358;11.256;2022-11-23T06:50:31;2.10;99.90
8643;DHT22;4359;49.358;11.256;2022-11-23T06:52:57;2.10;99.90
8643;DHT22;4359;49.358;11.256;2022-11-23T06:55:23;2.20;99.90
8643;DHT22;4359;49.358;11.256;2022-11-23T06:57:49;2.30;99.90
8643;DHT22;4359;49.358;11.256;2022-11-23T07:00:14;2.40;99.90
8643;DHT22;4359;49.358;11.256;2022-11-23T07:02:40;2.50;99.90
8643;DHT22;4359;49.358;11.256;2022-11-23T07:05:06;2.60;99.90
8643;DHT22;4359;49.358;11.256;2022-11-23T07:07:31;2.70;99.90
8643;DHT22;4359;49.358;11.256;2022-11-23T07:09:57;2.70;99.90
8643;DHT22;4359;49.358;11.256;2022-11-23T07:12:23;2.90;99.90
8643;DHT22;4359;49.358;11.256;2022-11-23T07:14:48;2.80;99.90
8643;DHT22;4359;49.358;11.256;2022-11-23T07:17:14;2.80;99.90
8643;DHT22;4359;49.358;11.256;2022-11-23T07:19:39;2.90;99.90
8643;DHT22;4359;49.358;11.256;2022-11-23T07:22:05;3.00;99.90
8643;DHT22;4359;49.358;11.256;2022-11-23T07:24:30;3.10;99.90
8643;DHT22;4359;49.358;11.256;2022-11-23T07:26:56;3.10;99.90
8643;DHT22;4359;49.358;11.256;2022-11-23T07:29:21;3.10;99.90
8643;DHT22;4359;49.358;11.256;2022-11-23T07:31:47;3.00;99.90
8643;DHT22;4359;49.358;11.256;2022-11-23T07:34:12;3.10;99.90
8643;DHT22;4359;49.358;11.256;2022-11-23T07:36:38;3.00;99.90
8643;DHT22;4359;49.358;11.256;2022-11-23T07:39:03;2.90;99.90
8643;DHT22;4359;49.358;11.256;2022-11-23T07:41:29;2.80;99.90
8643;DHT22;4359;49.358;11.256;2022-11-23T07:43:54;2.80;99.90
8643;DHT22;4359;49.358;11.256;2022-11-23T07:46:20;3.00;99.90
8643;DHT22;4359;49.358;11.256;2022-11-23T07:48:45;3.10;99.90
8643;DHT22;4359;49.358;11.256;2022-11-23T07:51:11;3.20;99.90
8643;DHT22;4359;49.358;11.256;2022-11-23T07:53:36;3.30;99.90
8643;DHT22;4359;49.358;11.256;2022-11-23T07:56:02;3.40;99.90
8643;DHT22;4359;49.358;11.256;2022-11-23T07:58:27;3.40;99.90
8643;DHT22;4359;49.358;11.256;2022-11-23T08:00:53;3.40;99.90
8643;DHT22;4359;49.358;11.256;2022-11-23T08:03:19;3.40;99.90
8643;DHT22;4359;49.358;11.256;2022-11-23T08:05:45;3.40;99.90
8643;DHT22;4359;49.358;11.256;2022-11-23T08:08:11;3.50;99.90
8643;DHT22;4359;49.358;11.256;2022-11-23T08:10:36;3.60;99.90
8643;DHT22;4359;49.358;11.256;2022-11-23T08:13:05;3.70;99.90
8643;DHT22;4359;49.358;11.256;2022-11-23T08:15:31;3.90;99.90
8643;DHT22;4359;49.358;11.256;2022-11-23T08:17:57;3.80;99.90
8643;DHT22;4359;49.358;11.256;2022-11-23T08:20:24;3.70;99.90
8643;DHT22;4359;49.358;11.256;2022-11-23T08:22:49;3.80;99.90
8643;DHT22;4359;49.358;11.256;2022-11-23T08:25:15;3.80;99.90
8643;DHT22;4359;49.358;11.256;2022-11-23T08:27:40;3.90;99.90
8643;DHT22;4359;49.358;11.256;2022-11-23T08:30:06;4.10;99.90
8643;DHT22;4359;49.358;11.256;2022-11-23T08:32:32;4.20;99.90
8643;DHT22;4359;49.358;11.256;2022-11-23T08:34:57;4.40;99.90
8643;DHT22;4359;49.358;11.256;2022-11-23T08:37:23;4.40;99.90
8643;DHT22;4359;49.358;11.256;2022-11-23T08:39:48;4.60;99.90
8643;DHT22;4359;49.358;11.256;2022-11-23T08:42:14;4.70;99.90
8643;DHT22;4359;49.358;11.256;2022-11-23T08:44:39;4.90;99.90
8643;DHT22;4359;49.358;11.256;2022-11-23T08:47:05;5.00;99.90
8643;DHT22;4359;49.358;11.256;2022-11-23T08:49:30;5.00;99.90
8643;DHT22;4359;49.358;11.256;2022-11-23T08:51:56;5.00;99.90
8643;DHT22;4359;49.358;11.256;2022-11-23T08:54:22;4.90;99.90
8643;DHT22;4359;49.358;11.256;2022-11-23T08:56:49;4.90;99.90
8643;DHT22;4359;49.358;11.256;2022-11-23T08:59:14;5.00;99.90
8643;DHT22;4359;49.358;11.256;2022-11-23T09:01:42;5.10;99.90
8643;DHT22;4359;49.358;11.256;2022-11-23T09:04:07;5.20;99.90
8643;DHT22;4359;49.358;11.256;2022-11-23T09:06:33;5.30;99.90
8643;DHT22;4359;49.358;11.256;2022-11-23T09:08:59;5.50;99.90
8643;DHT22;4359;49.358;11.256;2022-11-23T09:11:24;5.50;99.90
8643;DHT22;4359;49.358;11.256;2022-11-23T09:13:50;5.70;99.90
8643;DHT22;4359;49.358;11.256;2022-11-23T09:16:16;5.70;99.90
8643;DHT22;4359;49.358;11.256;2022-11-23T09:18:41;5.90;99.90
8643;DHT22;4359;49.358;11.256;2022-11-23T09:21:07;5.90;99.90
8643;DHT22;4359;49.358;11.256;2022-11-23T09:23:33;5.90;99.90
8643;DHT22;4359;49.358;11.256;2022-11-23T09:25:59;6.10;99.90
8643;DHT22;4359;49.358;11.256;2022-11-23T09:28:25;6.10;99.90
8643;DHT22;4359;49.358;11.256;2022-11-23T09:30:53;6.30;99.90
8643;DHT22;4359;49.358;11.256;2022-11-23T09:33:19;6.30;99.90
8643;DHT22;4359;49.358;11.256;2022-11-23T09:35:44;6.30;99.90
8643;DHT22;4359;49.358;11.256;2022-11-23T09:38:10;6.30;99.90
8643;DHT22;4359;49.358;11.256;2022-11-23T09:40:36;6.40;99.90
8643;DHT22;4359;49.358;11.256;2022-11-23T09:43:07;6.40;99.90
8643;DHT22;4359;49.358;11.256;2022-11-23T09:50:53;6.60;99.90
8643;DHT22;4359;49.358;11.256;2022-11-23T09:53:22;6.70;99.90
8643;DHT22;4359;49.358;11.256;2022-11-23T09:55:52;6.70;99.90
8643;DHT22;4359;49.358;11.256;2022-11-23T09:58:20;6.70;99.90
8643;DHT22;4359;49.358;11.256;2022-11-23T10:00:47;6.90;99.90
8643;DHT22;4359;49.358;11.256;2022-11-23T10:03:16;7.00;99.90
8643;DHT22;4359;49.358;11.256;2022-11-23T10:05:43;7.10;99.90
8643;DHT22;4359;49.358;11.256;2022-11-23T10:11:03;7.40;99.90
8643;DHT22;4359;49.358;11.256;2022-11-23T10:21:28;7.30;99.90
8643;DHT22;4359;49.358;11.256;2022-11-23T10:26:33;7.50;99.90
8643;DHT22;4359;49.358;11.256;2022-11-23T10:29:45;7.60;99.90
8643;DHT22;4359;49.358;11.256;2022-11-23T10:31:46;7.60;99.90
8643;DHT22;4359;49.358;11.256;2022-11-23T10:34:13;7.70;99.90
8643;DHT22;4359;49.358;11.256;2022-11-23T10:36:40;7.80;99.90
8643;DHT22;4359;49.358;11.256;2022-11-23T10:41:43;7.70;99.90
8643;DHT22;4359;49.358;11.256;2022-11-23T10:46:42;7.60;99.90
8643;DHT22;4359;49.358;11.256;2022-11-23T10:51:33;7.50;99.90
8643;DHT22;4359;49.358;11.256;2022-11-23T10:54:00;7.50;99.90
8643;DHT22;4359;49.358;11.256;2022-11-23T10:56:26;7.60;99.90
8643;DHT22;4359;49.358;11.256;2022-11-23T10:58:52;7.70;99.90
8643;DHT22;4359;49.358;11.256;2022-11-23T11:01:22;7.70;99.90
8643;DHT22;4359;49.358;11.256;2022-11-23T11:03:52;7.70;99.90
8643;DHT22;4359;49.358;11.256;2022-11-23T11:06:25;7.80;99.90
8643;DHT22;4359;49.358;11.256;2022-11-23T11:08:55;7.90;99.90
8643;DHT22;4359;49.358;11.256;2022-11-23T11:11:31;8.00;99.90
8643;DHT22;4359;49.358;11.256;2022-11-23T11:14:16;8.00;99.90
8643;DHT22;4359;49.358;11.256;2022-11-23T11:16:49;8.10;99.90
8643;DHT22;4359;49.358;11.256;2022-11-23T11:19:34;8.10;99.90
8643;DHT22;4359;49.358;11.256;2022-11-23T11:22:01;8.20;99.90
8643;DHT22;4359;49.358;11.256;2022-11-23T11:24:49;8.40;99.90
8643;DHT22;4359;49.358;11.256;2022-11-23T11:27:14;8.50;99.90
8643;DHT22;4359;49.358;11.256;2022-11-23T11:37:08;9.30;99.90
8643;DHT22;4359;49.358;11.256;2022-11-23T11:39:38;9.50;99.90
8643;DHT22;4359;49.358;11.256;2022-11-23T11:42:06;9.70;99.90
8643;DHT22;4359;49.358;11.256;2022-11-23T11:44:35;9.90;99.90
8643;DHT22;4359;49.358;11.256;2022-11-23T11:47:49;10.20;99.90
8643;DHT22;4359;49.358;11.256;2022-11-23T11:49:48;10.30;99.90
8643;DHT22;4359;49.358;11.256;2022-11-23T11:52:19;10.40;99.90
8643;DHT22;4359;49.358;11.256;2022-11-23T11:59:42;10.90;99.90
8643;DHT22;4359;49.358;11.256;2022-11-23T12:04:47;10.80;99.90
8643;DHT22;4359;49.358;11.256;2022-11-23T12:07:21;10.90;99.90
8643;DHT22;4359;49.358;11.256;2022-11-23T12:09:49;10.90;99.90
8643;DHT22;4359;49.358;11.256;2022-11-23T12:12:17;10.90;99.90
8643;DHT22;4359;49.358;11.256;2022-11-23T12:14:43;10.90;99.90
8643;DHT22;4359;49.358;11.256;2022-11-23T12:17:16;10.90;99.90
8643;DHT22;4359;49.358;11.256;2022-11-23T12:37:37;10.60;99.90
8643;DHT22;4359;49.358;11.256;2022-11-23T12:42:49;10.60;99.90
8643;DHT22;4359;49.358;11.256;2022-11-23T12:47:54;10.60;99.90
8643;DHT22;4359;49.358;11.256;2022-11-23T12:50:34;10.40;99.90
8643;DHT22;4359;49.358;11.256;2022-11-23T12:56:30;10.10;99.90
8643;DHT22;4359;49.358;11.256;2022-11-23T12:58:27;10.00;99.90
8643;DHT22;4359;49.358;11.256;2022-11-23T13:00:54;10.10;99.90
8643;DHT22;4359;49.358;11.256;2022-11-23T13:06:05;10.10;99.90
8643;DHT22;4359;49.358;11.256;2022-11-23T13:08:59;10.00;99.90
8643;DHT22;4359;49.358;11.256;2022-11-23T13:12:06;10.10;99.90
8643;DHT22;4359;49.358;11.256;2022-11-23T13:21:58;10.20;99.90
8643;DHT22;4359;49.358;11.256;2022-11-23T13:24:31;10.10;99.90
8643;DHT22;4359;49.358;11.256;2022-11-23T13:34:59;10.00;99.90
8643;DHT22;4359;49.358;11.256;2022-11-23T13:37:24;10.10;99.90
8643;DHT22;4359;49.358;11.256;2022-11-23T13:42:16;10.00;99.90
8643;DHT22;4359;49.358;11.256;2022-11-23T13:44:42;9.70;99.90
8643;DHT22;4359;49.358;11.256;2022-11-23T13:54:39;9.20;99.90
8643;DHT22;4359;49.358;11.256;2022-11-23T13:57:09;9.00;99.90
8643;DHT22;4359;49.358;11.256;2022-11-23T13:59:35;8.80;99.90
8643;DHT22;4359;49.358;11.256;2022-11-23T14:04:31;8.60;99.90
8643;DHT22;4359;49.358;11.256;2022-11-23T14:07:13;8.60;99.90
8643;DHT22;4359;49.358;11.256;2022-11-23T14:12:31;8.60;99.90
8643;DHT22;4359;49.358;11.256;2022-11-23T14:15:12;8.60;99.90
8643;DHT22;4359;49.358;11.256;2022-11-23T14:23:00;8.40;99.90
8643;DHT22;4359;49.358;11.256;2022-11-23T14:25:31;8.40;99.90
8643;DHT22;4359;49.358;11.256;2022-11-23T14:28:01;8.30;99.90
8643;DHT22;4359;49.358;11.256;2022-11-23T14:30:37;8.30;99.90
8643;DHT22;4359;49.358;11.256;2022-11-23T14:35:42;8.00;99.90
8643;DHT22;4359;49.358;11.256;2022-11-23T14:40:52;7.70;99.90
8643;DHT22;4359;49.358;11.256;2022-11-23T14:43:18;7.50;99.90
8643;DHT22;4359;49.358;11.256;2022-11-23T14:45:45;7.30;99.90
8643;DHT22;4359;49.358;11.256;2022-11-23T14:48:21;7.30;99.90
8643;DHT22;4359;49.358;11.256;2022-11-23T14:50:54;7.10;99.90
8643;DHT22;4359;49.358;11.256;2022-11-23T14:53:20;7.00;99.90
8643;DHT22;4359;49.358;11.256;2022-11-23T14:55:46;7.00;99.90
8643;DHT22;4359;49.358;11.256;2022-11-23T14:58:11;6.90;99.90
8643;DHT22;4359;49.358;11.256;2022-11-23T15:00:39;6.80;99.90
8643;DHT22;4359;49.358;11.256;2022-11-23T15:03:07;6.80;99.90
8643;DHT22;4359;49.358;11.256;2022-11-23T15:05:33;6.70;99.90
8643;DHT22;4359;49.358;11.256;2022-11-23T15:13:28;6.40;99.90
8643;DHT22;4359;49.358;11.256;2022-11-23T15:15:55;6.20;99.90
8643;DHT22;4359;49.358;11.256;2022-11-23T15:18:30;6.20;99.90
8643;DHT22;4359;49.358;11.256;2022-11-23T15:21:00;6.10;99.90
8643;DHT22;4359;49.358;11.256;2022-11-23T15:23:30;6.10;99.90
8643;DHT22;4359;49.358;11.256;2022-11-23T15:25:57;5.90;99.90
8643;DHT22;4359;49.358;11.256;2022-11-23T15:28:24;5.80;99.90
8643;DHT22;4359;49.358;11.256;2022-11-23T15:30:51;5.70;99.90
8643;DHT22;4359;49.358;11.256;2022-11-23T15:33:17;5.60;99.90
8643;DHT22;4359;49.358;11.256;2022-11-23T15:35:43;5.50;99.90
8643;DHT22;4359;49.358;11.256;2022-11-23T15:38:10;5.40;99.90
8643;DHT22;4359;49.358;11.256;2022-11-23T15:40:36;5.30;99.90
8643;DHT22;4359;49.358;11.256;2022-11-23T15:43:04;5.20;99.90
8643;DHT22;4359;49.358;11.256;2022-11-23T15:45:37;5.20;99.90
8643;DHT22;4359;49.358;11.256;2022-11-23T15:48:05;5.10;99.90
8643;DHT22;4359;49.358;11.256;2022-11-23T15:50:35;5.10;99.90
8643;DHT22;4359;49.358;11.256;2022-11-23T15:53:08;5.10;99.90
8643;DHT22;4359;49.358;11.256;2022-11-23T15:55:33;5.00;99.90
8643;DHT22;4359;49.358;11.256;2022-11-23T15:57:59;4.90;99.90
8643;DHT22;4359;49.358;11.256;2022-11-23T16:00:25;4.90;99.90
8643;DHT22;4359;49.358;11.256;2022-11-23T16:02:51;4.80;99.90
8643;DHT22;4359;49.358;11.256;2022-11-23T16:05:21;4.70;99.90
8643;DHT22;4359;49.358;11.256;2022-11-23T16:08:00;4.60;99.90
8643;DHT22;4359;49.358;11.256;2022-11-23T16:10:29;4.50;99.90
8643;DHT22;4359;49.358;11.256;2022-11-23T16:13:01;4.40;99.90
8643;DHT22;4359;49.358;11.256;2022-11-23T16:15:30;4.20;99.90
8643;DHT22;4359;49.358;11.256;2022-11-23T16:17:57;4.20;99.90
8643;DHT22;4359;49.358;11.256;2022-11-23T16:20:23;4.20;99.90
8643;DHT22;4359;49.358;11.256;2022-11-23T16:22:49;4.00;99.90
8643;DHT22;4359;49.358;11.256;2022-11-23T16:30:34;3.80;99.90
8643;DHT22;4359;49.358;11.256;2022-11-23T16:33:00;3.90;99.90
8643;DHT22;4359;49.358;11.256;2022-11-23T16:35:25;3.80;99.90
8643;DHT22;4359;49.358;11.256;2022-11-23T16:37:51;3.80;99.90
8643;DHT22;4359;49.358;11.256;2022-11-23T16:40:16;3.80;99.90
8643;DHT22;4359;49.358;11.256;2022-11-23T16:42:42;3.80;99.90
8643;DHT22;4359;49.358;11.256;2022-11-23T16:45:08;3.80;99.90
8643;DHT22;4359;49.358;11.256;2022-11-23T16:47:34;3.80;99.90
8643;DHT22;4359;49.358;11.256;2022-11-23T16:49:59;3.70;99.90
8643;DHT22;4359;49.358;11.256;2022-11-23T16:52:25;3.80;99.90
8643;DHT22;4359;49.358;11.256;2022-11-23T16:54:51;3.80;99.90
8643;DHT22;4359;49.358;11.256;2022-11-23T16:57:22;3.70;99.90
8643;DHT22;4359;49.358;11.256;2022-11-23T16:59:48;3.70;99.90
8643;DHT22;4359;49.358;11.256;2022-11-23T17:02:14;3.80;99.90
8643;DHT22;4359;49.358;11.256;2022-11-23T17:04:40;3.80;99.90
8643;DHT22;4359;49.358;11.256;2022-11-23T17:07:05;3.80;99.90
8643;DHT22;4359;49.358;11.256;2022-11-23T17:09:31;3.80;99.90
8643;DHT22;4359;49.358;11.256;2022-11-23T17:11:56;3.80;99.90
8643;DHT22;4359;49.358;11.256;2022-11-23T17:14:22;3.70;99.90
8643;DHT22;4359;49.358;11.256;2022-11-23T17:16:49;3.70;99.90
8643;DHT22;4359;49.358;11.256;2022-11-23T17:19:15;3.70;99.90
8643;DHT22;4359;49.358;11.256;2022-11-23T17:21:42;3.70;99.90
8643;DHT22;4359;49.358;11.256;2022-11-23T17:24:07;3.70;99.90
8643;DHT22;4359;49.358;11.256;2022-11-23T17:26:36;3.50;99.90
8643;DHT22;4359;49.358;11.256;2022-11-23T17:29:04;3.50;99.90
8643;DHT22;4359;49.358;11.256;2022-11-23T17:31:30;3.30;99.90
8643;DHT22;4359;49.358;11.256;2022-11-23T17:33:55;3.10;99.90
8643;DHT22;4359;49.358;11.256;2022-11-23T17:36:21;2.80;99.90
8643;DHT22;4359;49.358;11.256;2022-11-23T17:38:47;2.80;99.90
8643;DHT22;4359;49.358;11.256;2022-11-23T17:41:14;3.00;99.90
8643;DHT22;4359;49.358;11.256;2022-11-23T17:43:40;3.00;99.90
8643;DHT22;4359;49.358;11.256;2022-11-23T17:46:09;3.00;99.90
8643;DHT22;4359;49.358;11.256;2022-11-23T17:48:37;2.90;99.90
8643;DHT22;4359;49.358;11.256;2022-11-23T17:51:03;2.90;99.90
8643;DHT22;4359;49.358;11.256;2022-11-23T17:53:28;3.00;99.90
8643;DHT22;4359;49.358;11.256;2022-11-23T17:55:54;3.10;99.90
8643;DHT22;4359;49.358;11.256;2022-11-23T17:58:19;3.00;99.90
8643;DHT22;4359;49.358;11.256;2022-11-23T18:00:45;3.00;99.90
8643;DHT22;4359;49.358;11.256;2022-11-23T18:03:10;2.80;99.90
8643;DHT22;4359;49.358;11.256;2022-11-23T18:05:36;2.90;99.90